Airfield :
LOGIN :

Register | Disclaimer

   EN    FR    IT 

 










Legend :    VFR   Marginal VFR   IFR   Intensive IFR   Very Intensive IFR
Visi :
Ceiling :
>= 8 km
>= 3000ft
5 to 8 km
1000 to 3000 ft
1500m to 5 km
500 to 1000 ft
800 to 1500m
200 to 500 ft
< 800m
< 200 ft
Symbols :   Thunderstorms  Fog  Heavy snow  Heavy precipitations  Wind > 20 kt
SIGMETs :     Misc.  Thunderstorms  Icing  Turbulence  Mountain Waves  Volcanic Ashes






- Airport Elevation : 161 ft
- IATA code : PMF


LIMP - Parma

CURRENT METAR :
  • 201450Z 11005KT 080V150 6000 BKN015 21/17 Q1009

EXPIRED METARs :
  • 201350Z 01005KT 320V040 6000 BKN015 21/18 Q1009 RETS
  • 201250Z 04004KT 8000 -TSRA FEW020CB BKN030 21/17 Q1010 RERA
  • 201150Z VRB02KT 6000 TSRA FEW020CB BKN030 21/16 Q1011
  • 201115Z 08007KT 050V110 8000 -TSRA FEW020CB SCT030 21/16 Q1010
  • 201050Z 07008KT 040V100 9999 FEW020TCU SCT030 22/16 Q1010

TAF TAF LIMP
Valid from the 20 at 12:00 until the 21 at 12:00 UTC


201100Z 2012/2112 08010KT 9999 FEW030
TEMPO 2012/2024 TSRA
TEMPO 2100/2112 SHRA



MET'MAP, your aeronautical weather chart ! - Copyright ORBIFLY December 2007 - Disclaimer

ORBIFLY MET'MAP TEAM :

Programming & Development : Alexandra Zaïnal
Original concept : Baudouin d'Aumeries
Technical & hardware support : Manuel Goepfert
Assistance : Marc-Olivier Méhu




SOURCES & CREDITS :

   NOAA